Terminal Aerodrome Forecast
Issued by NWS Sioux Falls, SD

Home | Current Version | Previous Version | Graphics & Text | Print | Product List | Glossary Off
Versions: 1 2 3 4 5 6 7 8 9 10 11 12 13 14 15 16 17 18 19 20 21 22

000
FTUS43 KFSD 232340
TAFSUX
TAF
KSUX 232340Z 2400/2424 34016G24KT P6SM OVC010
     FM240600 34014KT P6SM OVC008
     FM241600 33013KT P6SM OVC012
     FM242100 29008KT P6SM SCT020 BKN200=

USA.gov is the U.S. government's official web portal to all federal, state and local government web resources and services.